Saturday, February 13, 2016
21:36 UTC
  |  Log In   |  Register Free
Airport Search:

Hobart Regional Airport
(KHBR)

Hobart Regional Airport Diagram
No Airport Diagram Available

FAA data valid effective Feb 4 2016 - Mar 31 2016 (unless otherwise noted).

 
 
 
 
 
 
 
 
 
 
 
 
 
 
Current Aviation Weather for KHBR

Weather Summary


The most recent METAR observation for HBR was updated at: 12:53 UTC
METAR for KHBR is not available. Closest METAR is for KCSM
KHBR  (most recent observation was updatred at 13:20 UTC)
132053Z AUTO 18016KT 9SM CLR 14/02 A3014 RMK AO2 SLP209 T01390017 58062

KCSM  (22.2 nm SE)   (most recent observation was updated at 13:20 UTC)
132053Z AUTO 18015G22KT 10SM CLR 13/01 A3013 RMK AO2 SLP208 T01280011 58064

KAXS  (22.5 nm NE)   (most recent observation was updated at 13:21 UTC)
132115Z AUTO 16012KT 10SM CLR 14/01 A3016 RMK AO2 T01440008

TAF for KHBR is not available.
KHBR
131743Z 1318/1418 15013KT P6SM SCT250 FM141000 21014KT P6SM BKN015 FM141300 35013KT 4SM BR OVC012 FM141600 01017KT P6SM SCT015

KCSM  (22.2 nm SE)   (most recent observation was updatred at 13:17 UTC)
131743Z 1318/1418 15013KT P6SM SCT250 FM140900 21014KT P6SM BKN015 FM141200 35013KT 4SM BR OVC012 FM141600 01017KT P6SM SCT015


KLTS  (23.1 nm NE)   (most recent observation was updatred at 13:07 UTC)
AMD 130730Z 1307/1407 VRB06KT 9999 SKC QNH3020INS BECMG 1315/1316 16015KT 9999 FEW020 QNH3012INS BECMG 1323/1324 18009KT 9999 SKC QNH3005INS TX20/1321Z TNM03/1311Z AMD 130730 LAST NO AMDS AFT 1307 NEXT 1609
GlobalAir.com is loading additional information.
 Current Weather at HBR
55.0 F° (12.8 C°)

South winds at 11.5 mph
Pressure:
30.21 in
Humidity:
45%
Wind:
South at 11.5 mph
Dew Point:
34.0 F° (1.1 C°)
Visibility:
9.00 mi
HBR NOAA Radar




Find All Airport Services Find A Hotel Find A Rental Car Find A Golf Course Find A Restaurant $100 Hamburger



Airport Weather Forecast for KHBR

Translated METAR for KHBR (2053 UTC)
METAR:
KHBR 132053Z AUTO 18016KT 9SM CLR 14/02 A3014 RMK AO2 SLP209 T01390017 58062
Conditions at:
KHBR (Hobart Rgnl, OK) observed 2053 UTC 13 February 2016
Temperature:
14°C (57.2°F)
Dewpoint:
2°C (35.6°F) [RH = 44.2]
Pressure:
30.14 inches Hg (1020.7 mb)
pressure at sea level is 209 in Hg
Winds:
from the S (180 degrees) at 18.4 mph (16 knots: 8.2 m/s)
Visibility:
9 mile(s)
Ceiling:
at least 12,000 feet AGL
Clouds:
Clear below 12,000 feet AGL
Remarks:
site is un-manned
site is automated and HAS a precipitation sensor

Translated TAF for KHBR (Hobart Rgnl, OK) (1743 UTC)
TAF text:
KHBR 131743Z 1318/1418 15013KT P6SM SCT250
Forecast period:
Saturday Feb 13 2016 18:00 UTC - Sunday Feb 14 2016 18:00 UTC
Forecast type:
FROM: standard forecast or significant change
Winds:
from the SSE (150 degrees) at 15 mph (13 knots: 6.7 m/s)
Visibility:
6 or more mile(s) (9.7+ km)
Ceiling:
at least 12,000 feet AGL
Clouds:
Scattered Clouds at 25,000 feet AGL
Weather:
no significant weather observed at this time
TAF text:
FM141000 21014KT P6SM BKN015
Forecast period:
Sunday Feb 14 2016 10:00 UTC - Sunday Feb 14 2016 13:00 UTC
Forecast type:
FROM: standard forecast or significant change
Winds:
from the SSW (210 degrees) at 16.1 mph (14 knots: 7.2 m/s)
Visibility:
6 or more mile(s) (9.7+ km)
Ceiling:
1,500 feet AGL
Clouds:
Broken Cloud Cover at 1,500 feet AGL
Weather:
no significant weather observed at this time
TAF text:
FM141300 35013KT 4SM BR OVC012
Forecast period:
Sunday Feb 14 2016 13:00 UTC - Sunday Feb 14 2016 16:00 UTC
Forecast type:
FROM: standard forecast or significant change
Winds:
from the N (350 degrees) at 15 mph (13 knots: 6.7 m/s)
Visibility:
4 mile(s) (6.4 km)
Ceiling:
1,200 feet AGL
Clouds:
Overcast Skies at 1,200 feet AGL
Weather:
Moderate Mist
TAF text:
FM141600 01017KT P6SM SCT015
Forecast period:
Sunday Feb 14 2016 16:00 UTC - Sunday Feb 14 2016 18:00 UTC
Forecast type:
FROM: standard forecast or significant change
Winds:
from the N (010 degrees) at 19.6 mph (17 knots: 8.7 m/s)
Visibility:
6 or more mile(s) (9.7+ km)
Ceiling:
at least 12,000 feet AGL
Clouds:
Scattered Clouds at 1,500 feet AGL
Weather:
no significant weather observed at this time
FBO's on the Field
FBO Company Facility Photos Services Transportation Aviation Fuel Prices: Prices include tax
Catering Weather Repair Courtesy Rental Type 100LL JetA JetA+ MOGAS 8087
 
City of Hobart

Currently rated 5 by 1 person
FS:Phillips 66
Last Updated: Feb-05
Login to update fuel prices
SS:
Contact City of HobartMore FBO Information
 
Add another FBO Facility Photos Catering Weather Repair Courtesy Rental Type 100LL JetA JetA+ MOGAS 8087
Services Transportation Aviation Fuel Prices: Prices include tax


model-print
model-print
model-print
model-print